Clifton, NJ (07011)

1:56 AM EDT on August 30, 2015 (GMT -0400)
Albion Park | | Change Station
CLOSE
Current Station
Personal Weather Station
Location: Clifton, NJ
Elevation: 215 ft
Nearby Weather Stations

Elev 215 ft 40.89 °N, 74.17 °W | Updated 1 minute ago

Partly Cloudy
Partly Cloudy
71.8 °F
Feels Like 72 °F
N
0.0
Wind Variable Wind from NNW
Gusts 5.0 mph

Today
High -- | Low -- °F
--% Chance of Precip.
Yesterday
High -- | Low -- °F
Precip. -- in
6:21 AM 7:32 PM
Full, 100% visible
Pressure 30.09 in
Visibility 10.0 miles
Clouds Clear
Heat Index 72 °F
Dew Point 65 °F
Humidity 79%
Rainfall 0.00 in
Snow Depth Not available.
UV 0 out of 12
Pollen 10.00 out of 12
Air Quality Not available.
Flu Activity Not available.
METAR KTEB 300551Z 18003KT 10SM CLR 22/15 A3009 RMK AO2 SLP189 T02220150 10250 20217 58000 $
Pressure 30.09 in
Visibility 10.0 miles
Clouds Clear
Heat Index 72 °F
Dew Point 65 °F
Humidity 79%
Rainfall 0.00 in
Snow Depth Not available.
UV 0 out of 12
Pollen 10.00 out of 12
Air Quality Not available.
Flu Activity Not available.
METAR KTEB 300551Z 18003KT 10SM CLR 22/15 A3009 RMK AO2 SLP189 T02220150 10250 20217 58000 $

10-Day Weather Forecast

×

Almanac

Astronomy

Aug. 30, 2015 Rise Set
Actual Time
Civil Twilight
Nautical Twilight
Astronomical Twilight
Moon
Length of Visible Light
Length of Day
Tomorrow will be .
, % of the Moon is Illuminated

Today's Extremes

State Highs State Lows

Community

WunderPhotos

Upload Photos

1,850,896 photos uploaded!

WunderBlogs® & News

Nearby

Air Quality

  Air Quality AQ Index Pollutant
Not available.

Snow Depth

Station Depth Elevation

Earthquake Activity

City Distance Mag. Time & Date
Minimum magnitude displayed is 2.5.

Coastal Water Temperatures

Place Temperature

Stations

Nearby Weather Stations

Station Location Temp. Windchill Dew Point Humidity Wind Precip. Elev Updated Type